createdAt,value
2022-12-23T00:02:32.530Z,100302.16
2022-12-23T00:05:40.620Z,100307.25
2022-12-23T00:08:42.853Z,100302.25
2022-12-23T00:11:44.197Z,100310.72
2022-12-23T00:14:45.579Z,100305.50
2022-12-23T00:17:46.921Z,100300.19
2022-12-23T00:20:48.321Z,100297.44
2022-12-23T00:23:51.023Z,100304.19
2022-12-23T00:26:52.407Z,100304.44
2022-12-23T00:29:53.776Z,100299.38
2022-12-23T00:32:55.159Z,100306.31
2022-12-23T00:35:56.550Z,100307.38
2022-12-23T00:38:59.250Z,100315.00
2022-12-23T00:42:00.653Z,100320.06
2022-12-23T00:45:02.008Z,100317.50
2022-12-23T00:48:03.561Z,100316.66
2022-12-23T00:51:05.108Z,100318.56
2022-12-23T00:54:06.610Z,100321.16
2022-12-23T00:57:08.010Z,100319.50
2022-12-23T01:00:09.963Z,100310.94
2022-12-23T01:03:12.607Z,100309.19
2022-12-23T01:06:14.119Z,100309.94
2022-12-23T01:09:15.491Z,100311.56
2022-12-23T01:12:16.892Z,100311.56
2022-12-23T01:15:18.227Z,100309.94
2022-12-23T01:18:19.568Z,100309.13
2022-12-23T01:21:20.931Z,100305.69
2022-12-23T01:24:22.719Z,100304.00
2022-12-23T01:27:24.061Z,100311.72
2022-12-23T01:30:25.424Z,100312.50
2022-12-23T01:33:26.836Z,100309.06
2022-12-23T01:36:28.192Z,100315.00
2022-12-23T01:39:29.580Z,100313.28
2022-12-23T01:42:31.179Z,100309.88
2022-12-23T01:45:33.522Z,100309.88
2022-12-23T01:48:35.370Z,100315.88
2022-12-23T01:51:36.752Z,100319.22
2022-12-23T01:54:39.367Z,100327.56
2022-12-23T01:57:42.671Z,100318.44
2022-12-23T02:00:46.392Z,100314.19
2022-12-23T02:03:49.287Z,100323.41
2022-12-23T02:06:51.392Z,100323.47
2022-12-23T02:09:53.073Z,100317.44
2022-12-23T02:13:19.221Z,100314.06
2022-12-23T02:16:20.825Z,100307.94
2022-12-23T02:19:57.289Z,100313.84
2022-12-23T02:23:28.104Z,100318.22
2022-12-23T02:27:07.961Z,100316.44
2022-12-23T02:30:27.179Z,100326.66
2022-12-23T02:33:38.282Z,100325.72
2022-12-23T02:37:03.934Z,100322.34
2022-12-23T02:40:18.357Z,100326.34
2022-12-23T02:43:54.031Z,100332.25
2022-12-23T02:47:02.834Z,100337.19
2022-12-23T02:50:11.050Z,100326.00
2022-12-23T02:53:19.712Z,100338.78
2022-12-23T02:56:25.371Z,100338.84
2022-12-23T02:59:30.785Z,100348.19
2022-12-23T03:02:35.845Z,100352.41
2022-12-23T03:05:44.309Z,100354.91
2022-12-23T03:08:45.856Z,100351.47
2022-12-23T03:12:11.106Z,100350.53
2022-12-23T03:15:27.713Z,100360.66
2022-12-23T03:18:48.039Z,100363.22
2022-12-23T03:22:08.209Z,100366.66
2022-12-23T03:25:34.395Z,100370.88
2022-12-23T03:28:43.523Z,100377.56
2022-12-23T03:31:46.245Z,100374.00
2022-12-23T03:34:51.931Z,100386.72
2022-12-23T03:37:56.027Z,100378.16
2022-12-23T03:41:05.524Z,100373.81
2022-12-23T03:44:13.374Z,100377.16
2022-12-23T03:47:18.658Z,100371.22
2022-12-23T03:50:22.547Z,100366.97
2022-12-23T03:53:35.030Z,100373.88
2022-12-23T03:56:41.232Z,100372.97
2022-12-23T03:59:45.118Z,100376.44
2022-12-23T04:02:58.027Z,100376.50
2022-12-23T04:06:02.428Z,100387.69
2022-12-23T04:09:05.945Z,100385.13
2022-12-23T04:12:08.016Z,100389.47
2022-12-23T04:15:13.053Z,100388.69
2022-12-23T04:18:14.817Z,100381.84
2022-12-23T04:21:16.215Z,100386.13
2022-12-23T04:24:17.642Z,100386.97
2022-12-23T04:27:19.211Z,100385.25
2022-12-23T04:30:20.625Z,100382.75
2022-12-23T04:33:22.019Z,100387.13
2022-12-23T04:36:23.476Z,100386.38
2022-12-23T04:39:24.871Z,100383.81
2022-12-23T04:42:26.254Z,100387.19
2022-12-23T04:45:27.613Z,100396.47
2022-12-23T04:48:29.075Z,100403.22
2022-12-23T04:51:30.412Z,100408.34
2022-12-23T04:54:31.795Z,100415.19
2022-12-23T04:57:33.237Z,100416.03
2022-12-23T05:00:39.422Z,100416.03
2022-12-23T05:03:41.538Z,100421.94
2022-12-23T05:06:42.925Z,100421.03
2022-12-23T05:09:44.271Z,100427.06
2022-12-23T05:12:45.672Z,100422.75
2022-12-23T05:15:50.146Z,100424.53
2022-12-23T05:18:51.621Z,100419.47
2022-12-23T05:21:53.013Z,100425.59
2022-12-23T05:24:54.346Z,100425.63
2022-12-23T05:27:55.716Z,100436.72
2022-12-23T05:31:01.757Z,100438.31
2022-12-23T05:34:06.576Z,100445.06
2022-12-23T05:37:08.552Z,100452.66
2022-12-23T05:40:10.232Z,100456.03
2022-12-23T05:43:11.958Z,100455.16
2022-12-23T05:46:13.403Z,100460.28
2022-12-23T05:49:14.814Z,100454.25
2022-12-23T05:52:16.178Z,100455.16
2022-12-23T05:55:18.401Z,100462.78
2022-12-23T05:58:19.741Z,100458.53
2022-12-23T06:01:21.133Z,100450.84
2022-12-23T06:04:22.573Z,100456.03
2022-12-23T06:07:24.065Z,100458.53
2022-12-23T06:10:25.474Z,100466.28
2022-12-23T06:13:26.900Z,100474.84
2022-12-23T06:16:28.568Z,100474.00
2022-12-23T06:19:29.992Z,100471.50
2022-12-23T06:22:31.593Z,100463.84
2022-12-23T06:25:32.944Z,100457.81
2022-12-23T06:28:34.858Z,100461.28
2022-12-23T06:31:36.361Z,100470.66
2022-12-23T06:34:37.871Z,100458.78
2022-12-23T06:37:39.218Z,100463.03
2022-12-23T06:40:40.769Z,100480.06
2022-12-23T06:43:42.136Z,100483.47
2022-12-23T06:46:43.499Z,100480.06
2022-12-23T06:49:44.817Z,100479.97
2022-12-23T06:52:46.230Z,100476.50
2022-12-23T06:55:47.566Z,100480.84
2022-12-23T06:58:48.913Z,100496.19
2022-12-23T07:01:50.424Z,100504.78
2022-12-23T07:04:51.817Z,100512.47
2022-12-23T07:07:53.188Z,100517.53
2022-12-23T07:11:00.157Z,100524.34
2022-12-23T07:14:01.530Z,100516.69
2022-12-23T07:17:02.985Z,100518.31
2022-12-23T07:20:05.579Z,100513.91
2022-12-23T07:23:06.922Z,100519.16
2022-12-23T07:26:08.309Z,100509.75
2022-12-23T07:29:09.731Z,100525.03
2022-12-23T07:32:11.197Z,100538.59
2022-12-23T07:35:12.589Z,100551.47
2022-12-23T07:38:13.985Z,100549.72
2022-12-23T07:41:15.393Z,100554.78
2022-12-23T07:44:16.962Z,100557.28
2022-12-23T07:47:18.280Z,100552.16
2022-12-23T07:50:19.657Z,100551.22
2022-12-23T07:53:20.996Z,100556.41
2022-12-23T07:56:22.561Z,100563.13
2022-12-23T07:59:25.975Z,100567.22
2022-12-23T08:02:27.383Z,100572.88
2022-12-23T08:05:28.885Z,100575.94
2022-12-23T08:08:31.046Z,100576.50
2022-12-23T08:11:32.393Z,100574.72
2022-12-23T08:14:33.744Z,100575.50
2022-12-23T08:17:35.190Z,100583.03
2022-12-23T08:20:36.527Z,100580.53
2022-12-23T08:23:37.859Z,100578.69
2022-12-23T08:26:39.259Z,100587.25
2022-12-23T08:29:40.622Z,100574.41
2022-12-23T08:32:42.006Z,100567.66
2022-12-23T08:35:43.351Z,100572.00
2022-12-23T08:38:45.045Z,100574.53
2022-12-23T08:41:47.928Z,100569.22
2022-12-23T08:44:49.710Z,100579.13
2022-12-23T08:47:51.526Z,100583.84
2022-12-23T08:50:53.134Z,100578.66
2022-12-23T08:54:00.414Z,100591.41
2022-12-23T08:57:02.129Z,100602.56
2022-12-23T09:00:03.987Z,100611.94
2022-12-23T09:03:05.984Z,100616.13
2022-12-23T09:06:12.557Z,100618.69
2022-12-23T09:09:15.012Z,100629.81
2022-12-23T09:12:16.357Z,100621.25
2022-12-23T09:15:17.856Z,100620.28
2022-12-23T09:18:19.343Z,100616.94
2022-12-23T09:21:22.657Z,100627.19
2022-12-23T09:24:24.331Z,100641.78
2022-12-23T09:27:25.996Z,100641.75
2022-12-23T09:30:27.713Z,100636.66
2022-12-23T09:33:29.055Z,100635.66
2022-12-23T09:36:30.457Z,100629.50
2022-12-23T09:39:31.854Z,100635.28
2022-12-23T09:42:49.804Z,100640.34
2022-12-23T09:46:14.968Z,100641.97
2022-12-23T09:49:17.910Z,100634.16
2022-12-23T09:52:36.276Z,100635.84
2022-12-23T09:55:50.219Z,100624.91
2022-12-23T09:59:29.603Z,100618.59
2022-12-23T10:02:50.643Z,100612.81
2022-12-23T10:06:12.873Z,100616.16
2022-12-23T10:09:17.344Z,100615.03
2022-12-23T10:12:32.888Z,100618.63
2022-12-23T10:15:41.153Z,100620.16
2022-12-23T10:18:50.372Z,100616.53
2022-12-23T10:21:59.808Z,100618.09
2022-12-23T10:25:05.358Z,100613.75
2022-12-23T10:28:09.954Z,100607.69
2022-12-23T10:31:39.379Z,100610.19
2022-12-23T10:34:57.182Z,100605.88
2022-12-23T10:38:01.623Z,100600.53
2022-12-23T10:41:09.662Z,100603.69
2022-12-23T10:44:29.412Z,100596.81
2022-12-23T10:47:54.902Z,100600.31
2022-12-23T10:51:09.785Z,100610.63
2022-12-23T10:54:16.742Z,100614.75
2022-12-23T10:57:19.839Z,100601.06
2022-12-23T11:00:23.555Z,100608.78
2022-12-23T11:03:31.234Z,100607.88
2022-12-23T11:06:38.453Z,100614.84
2022-12-23T11:09:43.690Z,100604.78
2022-12-23T11:12:50.291Z,100608.19
2022-12-23T11:15:51.869Z,100600.41
2022-12-23T11:18:56.953Z,100606.47
2022-12-23T11:22:00.045Z,100612.47
2022-12-23T11:25:37.048Z,100615.94
2022-12-23T11:28:48.168Z,100616.41
2022-12-23T11:31:50.579Z,100612.72
2022-12-23T11:34:53.003Z,100604.97
2022-12-23T11:37:55.920Z,100600.00
2022-12-23T11:40:57.774Z,100590.19
2022-12-23T11:44:04.494Z,100601.59
2022-12-23T11:47:17.791Z,100611.94
2022-12-23T11:50:34.484Z,100610.97
2022-12-23T11:53:35.916Z,100617.72
2022-12-23T11:56:40.236Z,100616.66
2022-12-23T11:59:48.841Z,100599.44
2022-12-23T12:02:52.418Z,100597.72
2022-12-23T12:06:06.963Z,100585.75
2022-12-23T12:09:13.110Z,100577.94
2022-12-23T12:12:20.010Z,100555.84
2022-12-23T12:15:41.155Z,100551.16
2022-12-23T12:18:46.251Z,100553.78
2022-12-23T12:21:54.504Z,100555.72
2022-12-23T12:24:58.606Z,100549.00
2022-12-23T12:28:04.164Z,100550.63
2022-12-23T12:31:21.172Z,100550.13
2022-12-23T12:34:44.092Z,100552.75
2022-12-23T12:37:51.185Z,100544.44
2022-12-23T12:40:57.840Z,100532.97
2022-12-23T12:44:09.769Z,100540.34
2022-12-23T12:51:12.937Z,100545.50
2022-12-23T12:54:24.057Z,100550.53
2022-12-23T12:57:25.889Z,100548.06
2022-12-23T13:00:27.351Z,100542.25
2022-12-23T13:04:07.570Z,100544.03
2022-12-23T13:07:15.023Z,100556.84
2022-12-23T13:10:32.446Z,100564.56
2022-12-23T13:14:01.010Z,100563.59
2022-12-23T13:17:07.142Z,100555.03
2022-12-23T13:20:20.325Z,100541.47
2022-12-23T13:23:44.387Z,100536.59
2022-12-23T13:26:58.684Z,100528.97
2022-12-23T13:30:09.931Z,100532.41
2022-12-23T13:33:28.312Z,100539.34
2022-12-23T13:36:52.491Z,100545.50
2022-12-23T13:40:08.079Z,100548.06
2022-12-23T13:43:15.782Z,100539.34
2022-12-23T13:47:05.581Z,100541.38
2022-12-23T13:50:26.608Z,100543.28
2022-12-23T13:53:51.978Z,100550.50
2022-12-23T13:57:06.981Z,100543.47
2022-12-23T14:00:17.371Z,100540.94
2022-12-23T14:03:23.581Z,100534.94
2022-12-23T14:06:24.878Z,100526.94
2022-12-23T14:09:35.659Z,100528.56
2022-12-23T14:12:41.989Z,100522.63
2022-12-23T14:16:12.525Z,100521.88
2022-12-23T14:19:49.950Z,100523.91
2022-12-23T14:23:09.724Z,100512.56
2022-12-23T14:26:30.073Z,100515.00
2022-12-23T14:29:43.582Z,100510.63
2022-12-23T14:32:59.375Z,100507.50
2022-12-23T14:36:22.460Z,100511.91
2022-12-23T14:39:31.716Z,100506.72
2022-12-23T14:42:41.158Z,100507.72
2022-12-23T14:45:43.330Z,100516.28
2022-12-23T14:48:44.660Z,100517.38
2022-12-23T14:51:46.060Z,100511.69
2022-12-23T14:55:20.726Z,100500.75
2022-12-23T14:58:17.832Z,100496.75
2022-12-23T15:01:31.650Z,100495.19
2022-12-23T15:04:49.909Z,100499.69
2022-12-23T15:07:53.083Z,100511.59
2022-12-23T15:10:56.483Z,100507.38
2022-12-23T15:13:59.017Z,100514.53
2022-12-23T15:17:14.756Z,100515.75
2022-12-23T15:20:26.261Z,100502.94
2022-12-23T15:23:27.802Z,100508.06
2022-12-23T15:26:32.445Z,100502.88
2022-12-23T15:29:33.857Z,100500.38
2022-12-23T15:32:35.257Z,100508.06
2022-12-23T15:35:39.572Z,100499.50
2022-12-23T15:38:41.504Z,100498.75
2022-12-23T15:41:45.101Z,100496.94
2022-12-23T15:44:46.481Z,100492.75
2022-12-23T15:47:47.905Z,100501.38
2022-12-23T15:50:53.044Z,100493.75
2022-12-23T15:53:59.326Z,100492.06
2022-12-23T15:57:02.727Z,100492.94
2022-12-23T16:00:04.290Z,100494.44
2022-12-23T16:03:30.181Z,100488.09
2022-12-23T16:06:33.904Z,100478.69
2022-12-23T16:09:36.454Z,100474.47
2022-12-23T16:12:38.777Z,100474.47
2022-12-23T16:15:40.169Z,100464.41
2022-12-23T16:18:47.253Z,100467.91
2022-12-23T16:21:49.249Z,100473.28
2022-12-23T16:24:53.079Z,100458.25
2022-12-23T16:28:14.528Z,100454.91
2022-12-23T16:31:19.259Z,100458.34
2022-12-23T16:34:20.825Z,100445.44
2022-12-23T16:37:22.176Z,100438.44
2022-12-23T16:40:23.568Z,100433.38
2022-12-23T16:43:25.304Z,100425.75
2022-12-23T16:46:27.720Z,100426.75
2022-12-23T16:49:33.633Z,100424.38
2022-12-23T16:52:35.455Z,100420.19
2022-12-23T16:55:36.797Z,100424.56
2022-12-23T16:58:38.508Z,100414.41
2022-12-23T17:01:44.373Z,100416.78
2022-12-23T17:04:45.847Z,100423.56
2022-12-23T17:07:47.759Z,100416.63
2022-12-23T17:10:50.407Z,100419.09
2022-12-23T17:13:55.301Z,100410.66
2022-12-23T17:16:59.368Z,100410.66
2022-12-23T17:20:00.774Z,100415.69
2022-12-23T17:23:02.216Z,100418.13
2022-12-23T17:26:03.591Z,100414.72
2022-12-23T17:29:05.981Z,100420.63
2022-12-23T17:32:12.094Z,100412.84
2022-12-23T17:35:15.012Z,100417.13
2022-12-23T17:38:16.582Z,100413.91
2022-12-23T17:41:28.875Z,100414.72
2022-12-23T17:44:30.237Z,100418.41
2022-12-23T17:47:31.570Z,100424.47
2022-12-23T17:50:34.789Z,100421.13
2022-12-23T17:53:36.132Z,100414.28
2022-12-23T17:56:37.499Z,100417.47
2022-12-23T17:59:38.851Z,100412.28
2022-12-23T18:02:40.760Z,100423.41
2022-12-23T18:05:42.206Z,100422.81
2022-12-23T18:08:43.709Z,100420.31
2022-12-23T18:11:47.822Z,100421.03
2022-12-23T18:14:49.311Z,100428.06
2022-12-23T18:17:52.568Z,100423.88
2022-12-23T18:20:56.828Z,100431.38
2022-12-23T18:23:59.656Z,100427.00
2022-12-23T18:27:01.036Z,100429.50
2022-12-23T18:30:02.386Z,100429.50
2022-12-23T18:33:05.283Z,100436.19
2022-12-23T18:36:20.564Z,100436.16
2022-12-23T18:39:21.985Z,100430.13
2022-12-23T18:42:23.357Z,100428.38
2022-12-23T18:45:30.835Z,100419.81
2022-12-23T18:48:32.213Z,100433.38
2022-12-23T18:51:33.563Z,100426.59
2022-12-23T18:54:34.929Z,100425.69
2022-12-23T18:57:36.290Z,100428.13
2022-12-23T19:00:37.627Z,100425.59
2022-12-23T19:03:39.022Z,100427.31
2022-12-23T19:06:40.628Z,100425.75
2022-12-23T19:09:42.007Z,100424.09
2022-12-23T19:12:43.497Z,100422.47
2022-12-23T19:15:45.648Z,100424.13
2022-12-23T19:18:48.317Z,100424.94
2022-12-23T19:21:49.687Z,100426.75
2022-12-23T19:25:04.823Z,100424.25
2022-12-23T19:28:08.027Z,100425.38
2022-12-23T19:31:13.631Z,100427.25
2022-12-23T19:34:16.033Z,100431.56
2022-12-23T19:37:18.043Z,100429.94
2022-12-23T19:40:19.450Z,100426.44
2022-12-23T19:43:20.796Z,100434.81
2022-12-23T19:46:22.166Z,100435.59
2022-12-23T19:49:23.742Z,100443.16
2022-12-23T19:52:25.335Z,100441.38
2022-12-23T19:55:26.690Z,100438.75
2022-12-23T19:58:34.108Z,100436.19
2022-12-23T20:01:35.564Z,100431.94
2022-12-23T20:04:36.999Z,100438.75
2022-12-23T20:07:38.336Z,100432.75
2022-12-23T20:10:40.824Z,100443.16
2022-12-23T20:13:42.434Z,100436.31
2022-12-23T20:16:44.541Z,100442.28
2022-12-23T20:19:46.584Z,100439.66
2022-12-23T20:22:48.020Z,100443.13
2022-12-23T20:25:49.849Z,100449.91
2022-12-23T20:28:51.213Z,100445.72
2022-12-23T20:31:52.594Z,100441.56
2022-12-23T20:34:53.947Z,100445.84
2022-12-23T20:37:55.331Z,100438.22
2022-12-23T20:40:56.658Z,100439.06
2022-12-23T20:47:19.889Z,100441.59
2022-12-23T20:50:21.431Z,100447.59
2022-12-23T20:53:22.846Z,100445.97
2022-12-23T20:56:24.202Z,100451.16
2022-12-23T20:59:25.858Z,100449.53
2022-12-23T21:02:27.290Z,100444.38
2022-12-23T21:05:28.724Z,100450.34
2022-12-23T21:08:30.091Z,100449.47
2022-12-23T21:11:34.272Z,100447.84
2022-12-23T21:14:35.819Z,100440.94
2022-12-23T21:17:37.175Z,100444.47
2022-12-23T21:20:38.514Z,100449.59
2022-12-23T21:23:41.638Z,100448.72
2022-12-23T21:26:43.887Z,100456.38
2022-12-23T21:29:45.378Z,100452.22
2022-12-23T21:32:46.753Z,100450.53
2022-12-23T21:35:48.088Z,100455.66
2022-12-23T21:38:49.886Z,100450.59
2022-12-23T21:41:51.411Z,100454.03
2022-12-23T21:44:53.027Z,100457.56
2022-12-23T21:47:54.385Z,100455.88
2022-12-23T21:50:55.793Z,100459.31
2022-12-23T21:53:58.543Z,100466.94
2022-12-23T21:56:59.887Z,100469.59
2022-12-23T22:00:01.296Z,100473.84
2022-12-23T22:03:02.680Z,100475.47
2022-12-23T22:06:10.726Z,100475.53
2022-12-23T22:09:18.490Z,100476.22
2022-12-23T22:12:19.856Z,100474.56
2022-12-23T22:15:21.213Z,100472.78
2022-12-23T22:18:22.594Z,100478.72
2022-12-23T22:21:26.342Z,100489.84
2022-12-23T22:24:27.701Z,100485.63
2022-12-23T22:27:29.059Z,100482.16
2022-12-23T22:30:30.426Z,100483.09
2022-12-23T22:33:32.996Z,100483.03
2022-12-23T22:36:34.495Z,100481.41
2022-12-23T22:39:35.977Z,100482.16
2022-12-23T22:42:37.342Z,100483.84
2022-12-23T22:45:38.778Z,100481.34
2022-12-23T22:48:40.209Z,100484.06
2022-12-23T22:51:42.792Z,100484.94
2022-12-23T22:54:44.150Z,100485.88
2022-12-23T22:57:45.504Z,100486.75
2022-12-23T23:00:46.851Z,100486.81
2022-12-23T23:03:49.777Z,100481.88
2022-12-23T23:06:51.125Z,100492.56
2022-12-23T23:09:52.508Z,100486.91
2022-12-23T23:12:53.915Z,100482.13
2022-12-23T23:15:55.459Z,100489.97
2022-12-23T23:18:57.454Z,100501.88
2022-12-23T23:21:58.803Z,100502.78
2022-12-23T23:25:00.195Z,100505.41
2022-12-23T23:28:01.583Z,100498.69
2022-12-23T23:31:39.708Z,100501.38
2022-12-23T23:34:24.374Z,100499.81
2022-12-23T23:37:25.703Z,100498.13
2022-12-23T23:40:27.123Z,100495.69
2022-12-23T23:43:28.544Z,100496.59
2022-12-23T23:46:30.138Z,100510.22
2022-12-23T23:49:31.572Z,100506.00
2022-12-23T23:52:33.151Z,100506.03
2022-12-23T23:55:34.530Z,100510.34
2022-12-23T23:58:36.890Z,100506.16
